Time;durP1;ratioP1;P1;durP2;ratioP2;P2;SDS_P1;SDS_P2;PMS_P1;PMS_P2;Temp;Humidity;BMP_temperature;BMP_pressure;BME280_temperature;BME280_humidity;BME280_pressure;Samples;Min_cycle;Max_cycle;Signal;HPM_P1;HPM_P2
2021/08/04 00:01:32;;;;;;;26.17;14.78;;;;;;;15.26;88.74;94606.64;1699893;83;21227;-60
2021/08/04 00:03:59;;;;;;;19.25;11.70;;;;;;;15.19;89.05;94605.63;1703956;84;21009;-60
2021/08/04 00:06:26;;;;;;;22.40;12.73;;;;;;;15.16;89.65;94605.20;1706146;84;21137;-61
2021/08/04 00:08:54;;;;;;;20.43;12.37;;;;;;;15.15;89.68;94618.17;1708478;84;20959;-61
2021/08/04 00:11:21;;;;;;;26.85;15.05;;;;;;;15.13;90.05;94618.64;1708658;84;21013;-62
2021/08/04 00:13:50;;;;;;;25.00;16.30;;;;;;;15.06;90.07;94614.88;1706195;82;21006;-62
2021/08/04 00:16:16;;;;;;;22.87;14.55;;;;;;;15.04;90.86;94617.98;1702931;84;20953;-62
2021/08/04 00:18:43;;;;;;;16.00;11.33;;;;;;;15.07;90.97;94619.18;1702894;84;21106;-62
2021/08/04 00:21:11;;;;;;;16.87;11.63;;;;;;;15.09;91.01;94620.85;1707180;84;20998;-60
2021/08/04 00:23:39;;;;;;;21.50;13.08;;;;;;;15.06;90.79;94621.03;1707019;84;21036;-62
2021/08/04 00:26:05;;;;;;;18.52;12.98;;;;;;;15.03;91.06;94610.91;1705810;84;21462;-62
2021/08/04 00:28:32;;;;;;;20.15;13.50;;;;;;;15.03;91.23;94613.69;1701309;84;21002;-61
2021/08/04 00:30:59;;;;;;;23.07;14.25;;;;;;;15.01;91.44;94618.94;1702049;83;21181;-60
2021/08/04 00:33:26;;;;;;;19.82;12.80;;;;;;;15.04;91.64;94613.19;1702722;84;21015;-60
2021/08/04 00:35:53;;;;;;;18.95;12.07;;;;;;;15.07;91.80;94610.09;1697774;84;21002;-60
2021/08/04 00:38:20;;;;;;;15.43;11.57;;;;;;;15.10;91.71;94615.45;1701435;84;21009;-61
2021/08/04 00:40:49;;;;;;;15.60;11.08;;;;;;;15.10;91.63;94615.45;1705003;84;21045;-60
2021/08/04 00:43:15;;;;;;;25.48;13.08;;;;;;;15.13;91.73;94614.48;1705177;84;21474;-61
2021/08/04 00:45:42;;;;;;;15.88;11.28;;;;;;;15.11;91.38;94622.52;1698921;84;21002;-60
2021/08/04 00:48:09;;;;;;;14.35;9.95;;;;;;;15.09;91.19;94626.39;1701459;84;21588;-60
2021/08/04 00:50:36;;;;;;;15.08;9.65;;;;;;;15.04;91.11;94632.58;1706677;84;21022;-62
2021/08/04 00:53:26;;;;;;;13.00;9.68;;;;;;;15.00;91.17;94622.31;1707367;84;20954;-62
2021/08/04 00:55:55;;;;;;;15.30;10.13;;;;;;;14.98;91.00;94619.27;1703812;84;21202;-62
2021/08/04 00:58:33;;;;;;;12.37;8.83;;;;;;;14.90;90.96;94622.29;1708355;84;21002;-62
2021/08/04 01:01:20;;;;;;;14.78;9.95;;;;;;;14.83;91.23;94610.83;1704796;83;21017;-61
2021/08/04 01:04:10;;;;;;;16.90;10.50;;;;;;;14.75;91.47;94613.20;1702071;82;21246;-61
2021/08/04 01:07:07;;;;;;;19.48;9.68;;;;;;;14.73;91.54;94621.83;1706727;82;20993;-61
2021/08/04 01:09:48;;;;;;;14.45;10.65;;;;;;;14.73;91.78;94612.92;1705473;83;21920;-61
2021/08/04 01:12:21;;;;;;;17.60;12.00;;;;;;;14.79;92.14;94613.77;1703645;82;21465;-62
2021/08/04 01:14:49;;;;;;;;;;;;;;;14.84;91.97;94611.72;1708788;84;21014;-61
2021/08/04 01:17:17;;;;;;;11.48;9.55;;;;;;;14.82;91.49;94605.89;1704221;84;20166;-61
2021/08/04 01:20:06;;;;;;;16.25;9.03;;;;;;;14.76;91.26;94613.95;1706073;84;21001;-61
2021/08/04 01:22:44;;;;;;;10.35;8.15;;;;;;;14.69;91.29;94613.73;1703427;83;21185;-62
2021/08/04 01:25:16;;;;;;;10.88;8.18;;;;;;;14.68;91.68;94606.67;1706278;82;20947;-62
2021/08/04 01:27:55;;;;;;;10.35;8.80;;;;;;;14.64;91.72;94606.08;1701238;83;21005;-62
2021/08/04 01:30:21;;;;;;;12.25;8.78;;;;;;;14.57;91.74;94605.08;1703087;83;21022;-61
2021/08/04 01:32:48;;;;;;;8.55;7.55;;;;;;;14.57;91.99;94601.53;1700049;83;20975;-60
2021/08/04 01:35:16;;;;;;;12.07;8.50;;;;;;;14.58;92.07;94603.05;1702175;83;21545;-61
2021/08/04 01:37:43;;;;;;;12.73;8.95;;;;;;;14.51;91.83;94593.14;1679666;84;21556;-60
2021/08/04 01:40:12;;;;;;;11.05;8.25;;;;;;;14.42;91.89;94598.61;1701632;82;20993;-61
2021/08/04 01:42:39;;;;;;;9.78;7.50;;;;;;;14.36;92.17;94598.50;1704479;83;21427;-61
2021/08/04 01:45:07;;;;;;;12.78;8.58;;;;;;;14.35;92.47;94599.73;1697409;83;21062;-62
2021/08/04 01:47:35;;;;;;;12.40;7.67;;;;;;;14.36;92.65;94589.45;1704219;82;20981;-62
2021/08/04 01:50:03;;;;;;;14.87;8.45;;;;;;;14.38;92.69;94591.12;1699366;83;21575;-61
2021/08/04 01:52:31;;;;;;;12.85;8.63;;;;;;;14.39;92.59;94589.87;1704101;84;21513;-61
2021/08/04 01:54:58;;;;;;;9.63;6.58;;;;;;;14.39;92.17;94592.64;1704269;82;20993;-61
2021/08/04 01:57:25;;;;;;;10.30;8.40;;;;;;;14.39;92.07;94589.87;1685869;84;20951;-62
2021/08/04 01:59:54;;;;;;;7.80;7.10;;;;;;;14.37;92.08;94584.05;1700097;83;21045;-60
2021/08/04 02:02:23;;;;;;;11.40;7.35;;;;;;;14.39;92.14;94587.11;1702028;84;21045;-60
2021/08/04 02:04:51;;;;;;;9.53;7.80;;;;;;;14.42;92.10;94592.47;1702725;83;21060;-62
2021/08/04 02:07:24;;;;;;;10.88;7.30;;;;;;;14.43;91.71;94590.45;1704111;84;21553;-60
2021/08/04 02:09:54;;;;;;;7.47;6.37;;;;;;;14.41;91.33;94594.31;1702402;83;21002;-61
2021/08/04 02:12:21;;;;;;;8.30;6.85;;;;;;;14.43;91.10;94593.22;1703768;83;21648;-60
2021/08/04 02:15:06;;;;;;;10.18;7.33;;;;;;;14.42;91.03;94594.45;1698274;83;20955;-61
2021/08/04 02:17:56;;;;;;;8.88;7.97;;;;;;;14.41;91.15;94595.70;1697346;83;21434;-60
2021/08/04 02:20:29;;;;;;;11.12;7.60;;;;;;;14.39;91.34;94600.31;1701775;83;20986;-61
2021/08/04 02:23:13;;;;;;;8.13;6.90;;;;;;;14.39;91.33;94605.09;1702384;83;21540;-61
2021/08/04 02:26:05;;;;;;;8.80;7.50;;;;;;;14.43;91.52;94612.59;1665744;84;21247;-62
2021/08/04 02:28:39;;;;;;;9.13;7.87;;;;;;;14.46;91.53;94607.63;1706884;82;21683;-60
2021/08/04 02:31:08;;;;;;;9.18;7.35;;;;;;;14.47;91.23;94606.38;1712092;83;21018;-62
2021/08/04 02:33:35;;;;;;;12.10;7.70;;;;;;;14.43;91.08;94609.83;1708869;83;20982;-60
2021/08/04 02:36:02;;;;;;;9.33;7.70;;;;;;;14.41;91.12;94612.30;1708346;83;21072;-61
2021/08/04 02:38:29;;;;;;;10.63;7.28;;;;;;;14.38;91.01;94616.02;1704053;83;21113;-62
2021/08/04 02:40:57;;;;;;;13.83;7.97;;;;;;;14.35;90.84;94616.98;1703282;83;20949;-62
2021/08/04 02:43:23;;;;;;;14.63;8.50;;;;;;;14.30;90.89;94617.01;1706195;84;20970;-61
2021/08/04 02:45:52;;;;;;;10.70;6.92;;;;;;;14.23;91.18;94627.67;1693214;83;21136;-61
2021/08/04 02:48:19;;;;;;;11.38;6.62;;;;;;;14.18;91.08;94629.08;1703904;83;21588;-60
2021/08/04 02:50:50;;;;;;;14.18;6.85;;;;;;;14.13;91.01;94630.32;1707451;83;21148;-60
2021/08/04 02:53:18;;;;;;;11.08;7.80;;;;;;;14.07;91.22;94629.45;1696329;83;21010;-60
2021/08/04 02:55:45;;;;;;;12.03;7.67;;;;;;;14.07;91.67;94625.30;1704091;83;21473;-60
2021/08/04 02:58:12;;;;;;;17.15;8.53;;;;;;;14.10;92.00;94628.50;1704363;83;20988;-62
2021/08/04 03:00:39;;;;;;;9.88;8.40;;;;;;;14.17;92.19;94629.58;1705631;82;21061;-60
2021/08/04 03:03:06;;;;;;;8.58;6.90;;;;;;;14.23;92.13;94629.06;1694356;83;21124;-60
2021/08/04 03:05:34;;;;;;;10.58;8.40;;;;;;;14.25;91.88;94623.81;1693238;84;20993;-60
2021/08/04 03:08:02;;;;;;;11.90;8.88;;;;;;;14.25;92.09;94630.73;1705833;83;21021;-60
2021/08/04 03:10:29;;;;;;;14.78;10.80;;;;;;;14.31;92.30;94619.14;1703196;83;21081;-60
2021/08/04 03:12:55;;;;;;;11.00;8.13;;;;;;;14.37;92.38;94610.34;1704431;84;20994;-61
2021/08/04 03:15:22;;;;;;;8.00;7.20;;;;;;;14.45;92.16;94618.55;1701012;84;21181;-60
2021/08/04 03:17:51;;;;;;;30.23;8.88;;;;;;;14.50;91.61;94609.61;1698846;84;21435;-61
2021/08/04 03:20:18;;;;;;;11.28;7.78;;;;;;;14.51;91.65;94607.59;1689116;83;20981;-62
2021/08/04 03:22:47;;;;;;;11.53;8.30;;;;;;;14.57;91.18;94608.45;1702063;83;20966;-62
2021/08/04 03:25:16;;;;;;;8.78;7.60;;;;;;;14.57;90.88;94616.15;1695015;83;21096;-60
2021/08/04 03:27:43;;;;;;;8.40;6.95;;;;;;;14.58;90.51;94623.21;1703318;83;21157;-60
2021/08/04 03:30:12;;;;;;;10.08;7.47;;;;;;;14.55;90.34;94632.47;1698196;83;20963;-61
2021/08/04 03:32:40;;;;;;;8.83;7.10;;;;;;;14.53;90.39;94630.80;1698550;83;21048;-62
2021/08/04 03:35:08;;;;;;;8.98;8.05;;;;;;;14.50;90.31;94629.59;1692668;83;21009;-60
2021/08/04 03:37:36;;;;;;;11.75;7.75;;;;;;;14.48;90.88;94632.08;1695651;83;20998;-60
2021/08/04 03:40:04;;;;;;;9.20;6.55;;;;;;;14.49;90.89;94641.27;1703513;83;21074;-60
2021/08/04 03:42:33;;;;;;;6.87;6.20;;;;;;;14.49;90.83;94645.42;1700100;84;20946;-61
2021/08/04 03:45:04;;;;;;;8.03;6.70;;;;;;;14.48;90.54;94643.90;1697383;83;20980;-60
2021/08/04 03:47:31;;;;;;;9.15;7.00;;;;;;;14.40;90.23;94644.73;1683429;84;21001;-62
2021/08/04 03:49:58;;;;;;;8.68;7.53;;;;;;;14.35;90.60;94652.32;1700572;83;21018;-62
2021/08/04 03:52:25;;;;;;;8.25;6.87;;;;;;;14.32;90.38;94646.36;1693006;83;21107;-61
2021/08/04 03:54:51;;;;;;;10.68;7.37;;;;;;;14.31;90.57;94644.83;1702306;83;21060;-61
2021/08/04 03:57:18;;;;;;;9.68;7.70;;;;;;;14.29;90.51;94649.30;1704486;84;21092;-63
2021/08/04 03:59:45;;;;;;;10.53;7.45;;;;;;;14.28;90.38;94653.30;1702471;83;21014;-60
2021/08/04 04:02:12;;;;;;;8.50;7.55;;;;;;;14.28;90.74;94656.84;1694104;83;21013;-60
2021/08/04 04:04:39;;;;;;;13.80;9.13;;;;;;;14.37;90.95;94648.45;1685354;84;21497;-60
2021/08/04 04:07:05;;;;;;;11.53;7.87;;;;;;;14.41;90.54;94648.28;1705245;83;21591;-61
2021/08/04 04:09:32;;;;;;;9.80;7.22;;;;;;;14.43;90.63;94648.72;1701051;82;21096;-61
2021/08/04 04:11:58;;;;;;;8.60;6.65;;;;;;;14.48;90.42;94652.20;1701191;83;20946;-61
2021/08/04 04:14:26;;;;;;;10.03;7.70;;;;;;;14.50;90.05;94651.14;1684186;84;21065;-61
2021/08/04 04:16:54;;;;;;;10.10;8.05;;;;;;;14.52;89.91;94651.42;1699844;83;21526;-60
2021/08/04 04:19:20;;;;;;;9.23;7.72;;;;;;;14.59;90.13;94646.14;1701061;83;21002;-61
2021/08/04 04:21:47;;;;;;;12.47;7.70;;;;;;;14.69;90.00;94646.97;1701378;83;21172;-62
2021/08/04 04:24:13;;;;;;;8.83;6.40;;;;;;;14.78;89.58;94641.97;1704790;83;21056;-64
2021/08/04 04:26:40;;;;;;;10.93;6.58;;;;;;;14.85;89.07;94643.71;1694601;84;21540;-61
2021/08/04 04:29:07;;;;;;;9.65;7.20;;;;;;;14.88;88.28;94643.39;1703242;83;21970;-61
2021/08/04 04:31:34;;;;;;;8.20;7.22;;;;;;;14.86;88.28;94641.11;1701382;83;20959;-63
2021/08/04 04:34:02;;;;;;;8.15;6.50;;;;;;;14.90;88.17;94639.52;1702945;83;21022;-64
2021/08/04 04:36:29;;;;;;;10.38;6.85;;;;;;;14.94;88.02;94640.09;1704067;83;21101;-68
2021/08/04 04:38:56;;;;;;;7.42;6.62;;;;;;;14.99;88.23;94645.73;1702113;84;21065;-67
2021/08/04 04:41:23;;;;;;;7.55;6.85;;;;;;;15.07;87.89;94645.50;1702778;83;21027;-68
2021/08/04 04:43:50;;;;;;;7.90;7.10;;;;;;;15.09;87.66;94643.02;1697495;83;21102;-69
2021/08/04 04:46:16;;;;;;;8.08;7.17;;;;;;;15.15;87.71;94641.09;1703753;83;21459;-56
2021/08/04 04:48:43;;;;;;;8.33;5.37;;;;;;;15.22;87.60;94644.85;1695182;83;21082;-60
2021/08/04 04:51:11;;;;;;;7.42;5.75;;;;;;;15.31;87.14;94643.41;1700288;83;37467;-60
2021/08/04 04:53:39;;;;;;;10.70;6.37;;;;;;;15.34;86.12;94645.22;1696567;83;21072;-63
2021/08/04 04:56:06;;;;;;;10.10;6.58;;;;;;;15.29;85.80;94648.67;1688666;83;21460;-63
2021/08/04 04:58:33;;;;;;;10.63;6.40;;;;;;;15.29;85.49;94650.66;1702959;83;21529;-60
2021/08/04 05:01:00;;;;;;;7.85;5.87;;;;;;;15.30;85.27;94644.66;1691319;83;21054;-61
2021/08/04 05:03:27;;;;;;;12.50;6.20;;;;;;;15.30;84.79;94643.27;1696880;83;21080;-62
2021/08/04 05:05:53;;;;;;;7.17;5.72;;;;;;;15.32;84.37;94647.70;1706717;83;21246;-68
2021/08/04 05:08:22;;;;;;;8.10;6.00;;;;;;;15.36;84.31;94645.50;1676505;83;20943;-58
2021/08/04 05:10:49;;;;;;;8.03;5.58;;;;;;;15.40;83.91;94646.05;1697370;84;21007;-65
2021/08/04 05:13:16;;;;;;;6.55;5.37;;;;;;;15.47;83.63;94645.68;1696398;84;21007;-61
2021/08/04 05:15:43;;;;;;;6.85;5.67;;;;;;;15.59;83.88;94637.69;1686214;83;21017;-59
2021/08/04 05:18:10;;;;;;;8.10;5.97;;;;;;;15.67;83.92;94638.80;1694364;83;21153;-61
2021/08/04 05:20:38;;;;;;;6.50;5.90;;;;;;;15.76;83.77;94634.50;1676514;84;21585;-62
2021/08/04 05:23:05;;;;;;;17.42;15.78;;;;;;;15.83;83.22;94636.89;1688910;83;20951;-62
2021/08/04 05:25:32;;;;;;;7.37;5.90;;;;;;;15.91;82.89;94641.41;1682119;83;21035;-58
2021/08/04 05:27:58;;;;;;;6.12;5.33;;;;;;;15.97;82.34;94641.63;1680626;83;21180;-60
2021/08/04 05:30:25;;;;;;;9.05;5.80;;;;;;;16.01;81.82;94640.02;1675854;84;21143;-60
2021/08/04 05:32:52;;;;;;;7.03;6.33;;;;;;;16.03;81.54;94636.91;1648474;86;21223;-60
2021/08/04 05:35:18;;;;;;;11.97;6.15;;;;;;;16.03;81.44;94634.13;1646935;86;21105;-61
2021/08/04 05:37:46;;;;;;;8.20;5.75;;;;;;;16.01;81.16;94622.77;1659460;85;21573;-61
2021/08/04 05:40:14;;;;;;;7.58;5.35;;;;;;;16.06;81.27;94627.61;1661553;85;21094;-60
2021/08/04 05:42:41;;;;;;;5.65;4.75;;;;;;;16.18;80.98;94620.97;1652586;84;21114;-60
2021/08/04 05:45:09;;;;;;;10.03;6.00;;;;;;;16.30;80.51;94628.94;1629863;86;21020;-61
2021/08/04 05:47:36;;;;;;;10.95;5.62;;;;;;;16.39;79.94;94632.97;1628216;87;21054;-61
2021/08/04 05:50:04;;;;;;;6.08;5.47;;;;;;;16.48;79.24;94637.62;1665421;85;21055;-59
2021/08/04 05:52:31;;;;;;;8.38;5.10;;;;;;;16.57;78.75;94636.84;1665050;84;21525;-66
2021/08/04 05:54:57;;;;;;;5.95;4.80;;;;;;;16.67;78.36;94636.06;1620063;88;21782;-60
2021/08/04 05:57:24;;;;;;;15.23;5.45;;;;;;;16.81;78.20;94626.87;1631481;85;21104;-60
2021/08/04 05:59:53;;;;;;;7.75;5.22;;;;;;;16.94;78.12;94628.02;1622704;87;21705;-60
2021/08/04 06:02:19;;;;;;;5.75;4.45;;;;;;;17.09;77.17;94622.36;1631082;86;21196;-60
2021/08/04 06:04:46;;;;;;;9.80;4.83;;;;;;;17.20;76.77;94622.44;1675034;83;21061;-62
2021/08/04 06:07:13;;;;;;;7.58;4.95;;;;;;;17.29;76.21;94623.67;1693387;83;21110;-61
2021/08/04 06:09:39;;;;;;;12.98;6.60;;;;;;;17.41;75.55;94618.34;1702030;82;21141;-66
2021/08/04 06:12:07;;;;;;;9.78;5.40;;;;;;;17.60;75.40;94615.33;1687026;82;21489;-63
2021/08/04 06:14:34;;;;;;;6.12;5.45;;;;;;;17.82;75.53;94603.72;1694016;82;21672;-58
2021/08/04 06:17:01;;;;;;;13.93;5.42;;;;;;;18.07;75.29;94606.27;1695853;82;21049;-61
2021/08/04 06:19:29;;;;;;;10.85;5.72;;;;;;;18.23;73.62;94609.89;1702446;82;21508;-55
2021/08/04 06:21:58;;;;;;;14.30;6.78;;;;;;;18.31;72.97;94599.06;1712096;82;21017;-60
2021/08/04 06:24:25;;;;;;;10.55;5.60;;;;;;;18.36;72.68;94599.09;1696831;82;21102;-60
2021/08/04 06:26:54;;;;;;;13.43;6.12;;;;;;;18.44;72.39;94597.98;1696284;81;21041;-60
2021/08/04 06:29:24;;;;;;;11.78;5.60;;;;;;;18.51;72.05;94590.53;1701845;82;21055;-57
2021/08/04 06:31:52;;;;;;;6.58;4.75;;;;;;;18.61;71.95;94596.02;1715962;82;21823;-62
2021/08/04 06:34:18;;;;;;;7.80;5.40;;;;;;;18.67;71.63;94587.78;1708201;81;21024;-58
2021/08/04 06:36:46;;;;;;;7.72;4.60;;;;;;;18.75;70.95;94587.44;1699556;82;20989;-61
2021/08/04 06:39:13;;;;;;;8.58;4.65;;;;;;;18.83;70.11;94580.73;1702670;82;21108;-61
2021/08/04 06:41:40;;;;;;;7.20;4.97;;;;;;;18.95;69.96;94586.44;1701083;82;22180;-63
2021/08/04 06:44:07;;;;;;;7.78;5.20;;;;;;;19.03;69.26;94588.23;1715591;82;21496;-58
2021/08/04 06:46:35;;;;;;;6.37;4.35;;;;;;;19.09;69.09;94585.45;1706135;82;21517;-59
2021/08/04 06:49:03;;;;;;;7.15;4.65;;;;;;;19.13;68.63;94578.36;1694900;82;21507;-57
2021/08/04 06:51:30;;;;;;;10.53;5.22;;;;;;;19.19;68.43;94572.17;1689728;82;21184;-60
2021/08/04 06:53:58;;;;;;;8.15;5.37;;;;;;;19.31;68.34;94568.75;1694220;82;21545;-59
2021/08/04 06:56:25;;;;;;;12.75;5.90;;;;;;;19.49;68.06;94564.81;1696810;82;21121;-60
2021/08/04 06:58:52;;;;;;;10.55;4.90;;;;;;;19.69;67.90;94562.36;1689355;82;20995;-57
2021/08/04 07:01:19;;;;;;;9.55;5.05;;;;;;;19.90;67.58;94567.80;1688191;82;21434;-64
2021/08/04 07:03:46;;;;;;;5.12;4.58;;;;;;;20.05;67.25;94569.05;1683991;82;21581;-59
2021/08/04 07:06:14;;;;;;;7.03;6.25;;;;;;;20.13;67.05;94565.83;1697726;82;22175;-60
2021/08/04 07:08:40;;;;;;;6.50;5.53;;;;;;;20.22;66.75;94571.15;1697369;82;21529;-59
2021/08/04 07:11:08;;;;;;;6.20;4.85;;;;;;;20.25;66.20;94574.31;1712599;82;21076;-59
2021/08/04 07:13:36;;;;;;;8.85;5.42;;;;;;;20.33;65.84;94564.10;1686313;82;21426;-62
2021/08/04 07:16:05;;;;;;;7.05;4.40;;;;;;;20.41;66.13;94558.11;1691126;82;21087;-57
2021/08/04 07:18:31;;;;;;;11.35;5.72;;;;;;;20.57;66.40;94555.22;1702037;82;21511;-59
2021/08/04 07:20:59;;;;;;;6.85;5.60;;;;;;;20.77;65.42;94551.31;1699143;82;21134;-60
2021/08/04 07:23:25;;;;;;;5.45;4.60;;;;;;;20.98;65.44;94550.45;1709304;81;21536;-59
2021/08/04 07:25:53;;;;;;;5.30;4.15;;;;;;;21.21;64.08;94555.22;1699153;82;21005;-59
2021/08/04 07:28:20;;;;;;;6.47;3.67;;;;;;;21.37;62.55;94545.94;1698320;82;21034;-59
2021/08/04 07:30:47;;;;;;;4.53;3.85;;;;;;;21.51;61.59;94542.00;1709168;82;21010;-59
2021/08/04 07:33:14;;;;;;;6.10;4.37;;;;;;;21.68;61.13;94540.58;1702744;82;21034;-65
2021/08/04 07:35:40;;;;;;;15.35;4.53;;;;;;;21.84;61.41;94532.66;1700303;82;21072;-58
2021/08/04 07:38:07;;;;;;;4.25;3.80;;;;;;;22.00;60.38;94529.58;1694042;82;21069;-58
2021/08/04 07:40:34;;;;;;;5.42;4.42;;;;;;;22.17;59.74;94528.09;1677348;83;21132;-60
2021/08/04 07:43:01;;;;;;;5.08;4.12;;;;;;;22.35;59.07;94539.98;1693482;82;21545;-56
2021/08/04 07:45:29;;;;;;;6.78;3.77;;;;;;;22.52;59.69;94526.53;1695372;82;21160;-57
2021/08/04 07:47:56;;;;;;;7.45;4.15;;;;;;;22.66;59.36;94529.55;1707526;82;21010;-61
2021/08/04 07:50:24;;;;;;;10.82;5.67;;;;;;;22.73;59.35;94524.08;1683640;82;21163;-63
2021/08/04 07:52:50;;;;;;;6.45;4.35;;;;;;;22.86;59.49;94521.98;1696550;82;21061;-60
2021/08/04 07:55:19;;;;;;;5.10;4.17;;;;;;;22.98;60.05;94517.08;1699583;82;21506;-58
2021/08/04 07:57:46;;;;;;;8.88;3.85;;;;;;;23.02;59.52;94518.92;1682004;82;21541;-58
2021/08/04 08:00:14;;;;;;;5.10;4.05;;;;;;;23.05;59.29;94512.23;1699479;82;21052;-60
2021/08/04 08:02:42;;;;;;;4.65;4.25;;;;;;;23.08;60.10;94509.79;1689341;82;21128;-60
2021/08/04 08:05:10;;;;;;;4.53;3.98;;;;;;;23.15;59.39;94514.80;1701001;82;21164;-59
2021/08/04 08:07:36;;;;;;;28.98;18.10;;;;;;;23.21;60.19;94508.44;1702624;82;21091;-61
2021/08/04 08:10:07;;;;;;;9.08;6.53;;;;;;;23.27;60.09;94513.97;1703011;82;21148;-58
2021/08/04 08:12:36;;;;;;;5.97;4.80;;;;;;;23.35;59.97;94515.63;1698388;82;20979;-61
2021/08/04 08:15:05;;;;;;;5.12;4.30;;;;;;;23.46;59.53;94518.89;1704974;82;20990;-62
2021/08/04 08:17:32;;;;;;;10.90;5.40;;;;;;;23.54;59.47;94508.55;1726158;82;21089;-58
2021/08/04 08:19:58;;;;;;;6.42;4.05;;;;;;;23.68;59.00;94508.66;1694814;82;21932;-61
2021/08/04 08:22:25;;;;;;;8.45;3.83;;;;;;;23.82;59.55;94508.80;1680466;83;21786;-62
2021/08/04 08:24:52;;;;;;;4.80;3.60;;;;;;;23.97;59.85;94502.03;1633214;85;21573;-61
2021/08/04 08:27:20;;;;;;;4.78;3.77;;;;;;;24.09;58.20;94502.05;1638109;85;21020;-59
2021/08/04 08:29:47;;;;;;;6.25;3.65;;;;;;;24.21;57.85;94494.88;1637462;85;21005;-61
2021/08/04 08:32:15;;;;;;;6.35;4.10;;;;;;;24.31;57.86;94495.97;1636653;85;21101;-58
2021/08/04 08:34:43;;;;;;;8.38;4.35;;;;;;;24.42;57.75;94494.98;1639906;84;22329;-62
2021/08/04 08:37:11;;;;;;;6.28;4.33;;;;;;;24.53;57.84;94496.19;1649119;85;21041;-59
2021/08/04 08:39:38;;;;;;;4.37;3.40;;;;;;;24.65;56.89;94490.41;1652399;84;21238;-63
2021/08/04 08:42:07;;;;;;;4.85;3.20;;;;;;;24.81;58.28;94482.25;1655316;84;21136;-61
2021/08/04 08:44:33;;;;;;;5.28;3.58;;;;;;;24.94;57.39;94482.95;1643878;84;21053;-66
2021/08/04 08:47:07;;;;;;;4.72;3.77;;;;;;;25.03;55.87;94474.70;1628734;85;21363;-62
2021/08/04 08:49:34;;;;;;;10.18;4.72;;;;;;;25.09;56.58;94478.16;1713847;82;21127;-59
2021/08/04 08:52:00;;;;;;;7.75;4.08;;;;;;;25.15;56.31;94474.55;1708560;82;21089;-60
2021/08/04 08:54:28;;;;;;;9.23;4.45;;;;;;;25.24;55.92;94468.45;1711328;82;21080;-59
2021/08/04 08:56:55;;;;;;;8.75;4.45;;;;;;;25.27;55.72;94470.19;1710094;82;21351;-62
2021/08/04 08:59:22;;;;;;;5.15;3.83;;;;;;;25.27;55.83;94465.97;1686050;82;21181;-56
2021/08/04 09:01:50;;;;;;;4.78;3.80;;;;;;;25.21;56.15;94464.69;1699287;82;21025;-60
2021/08/04 09:04:17;;;;;;;3.92;3.45;;;;;;;25.14;56.15;94470.22;1710431;82;21050;-59
2021/08/04 09:06:51;;;;;;;4.67;3.40;;;;;;;25.12;56.36;94470.02;1667970;83;21030;-59
2021/08/04 09:09:23;;;;;;;6.15;3.33;;;;;;;25.13;56.61;94463.81;1713511;82;21682;-63
2021/08/04 09:12:13;;;;;;;4.78;3.27;;;;;;;25.22;57.47;94461.20;1721279;82;21064;-60
2021/08/04 09:14:41;;;;;;;4.90;3.65;;;;;;;25.37;57.08;94455.72;1701364;82;21547;-60
2021/08/04 09:17:14;;;;;;;3.60;3.25;;;;;;;25.48;55.80;94448.40;1696635;82;21116;-59
2021/08/04 09:19:48;;;;;;;5.50;3.27;;;;;;;25.44;54.94;94452.96;1699140;82;21029;-61
2021/08/04 09:22:24;;;;;;;3.65;3.20;;;;;;;25.36;54.58;94444.34;1697954;82;21073;-61
2021/08/04 09:25:08;;;;;;;3.35;3.05;;;;;;;25.27;53.11;94444.84;1681391;83;21528;-65
2021/08/04 09:27:51;;;;;;;6.67;3.05;;;;;;;25.22;52.52;94431.00;1702474;82;21070;-61
2021/08/04 09:30:32;;;;;;;3.70;3.30;;;;;;;25.16;52.42;94435.96;1685161;82;21061;-59
2021/08/04 09:33:25;;;;;;;14.63;5.08;;;;;;;25.10;52.18;94434.61;1691754;82;21212;-60
2021/08/04 09:35:52;;;;;;;9.75;3.77;;;;;;;25.06;52.74;94434.17;1685007;82;21049;-60
2021/08/04 09:38:19;;;;;;;13.25;4.60;;;;;;;25.05;53.54;94425.62;1680065;83;21130;-62
2021/08/04 09:41:18;;;;;;;8.63;3.80;;;;;;;25.07;55.00;94431.47;1643606;85;21153;-59
2021/08/04 09:43:51;;;;;;;6.12;3.30;;;;;;;25.11;54.31;94433.30;1624250;85;21142;-63
2021/08/04 09:46:24;;;;;;;5.83;3.47;;;;;;;25.16;52.98;94430.33;1709957;81;21215;-60
2021/08/04 09:48:51;;;;;;;4.20;3.47;;;;;;;25.24;52.87;94427.61;1699817;82;21088;-61
2021/08/04 09:51:19;;;;;;;6.65;3.52;;;;;;;25.35;52.21;94423.12;1710582;82;21641;-57
2021/08/04 09:53:49;;;;;;;12.50;4.67;;;;;;;25.53;52.88;94422.90;1710435;82;21057;-59
2021/08/04 09:56:20;;;;;;;7.58;4.03;;;;;;;25.78;52.13;94421.19;1697582;82;20994;-59
2021/08/04 09:58:52;;;;;;;9.03;3.47;;;;;;;25.95;50.58;94422.25;1691456;82;21179;-58
2021/08/04 10:01:25;;;;;;;7.53;3.10;;;;;;;26.01;50.07;94413.00;1706445;82;21053;-61
2021/08/04 10:04:07;;;;;;;4.67;3.17;;;;;;;26.07;48.76;94412.17;1703678;82;21147;-60
2021/08/04 10:06:36;;;;;;;3.65;2.92;;;;;;;26.18;48.22;94410.45;1700653;82;22268;-59
2021/08/04 10:09:06;;;;;;;3.77;3.22;;;;;;;26.40;48.61;94418.26;1711975;82;21176;-59
2021/08/04 10:11:33;;;;;;;7.72;3.10;;;;;;;26.58;46.68;94411.58;1702140;82;21013;-60
2021/08/04 10:14:00;;;;;;;3.40;2.67;;;;;;;26.82;47.40;94401.20;1717437;82;21033;-58
2021/08/04 10:16:36;;;;;;;6.67;3.15;;;;;;;26.98;46.75;94401.97;1727272;82;21187;-58
2021/08/04 10:19:05;;;;;;;5.47;2.98;;;;;;;27.03;45.71;94400.38;1716636;81;21460;-59
2021/08/04 10:21:33;;;;;;;3.77;2.85;;;;;;;27.02;44.77;94400.28;1725180;81;21565;-61
2021/08/04 10:24:01;;;;;;;4.53;3.85;;;;;;;27.13;43.59;94405.61;1710505;82;21144;-61
2021/08/04 10:26:28;;;;;;;8.85;3.50;;;;;;;27.30;42.83;94407.23;1697881;82;21095;-60
2021/08/04 10:28:57;;;;;;;7.75;3.83;;;;;;;27.55;42.80;94405.33;1693443;82;21126;-59
2021/08/04 10:31:25;;;;;;;5.55;3.27;;;;;;;27.86;42.78;94404.66;1738381;82;21008;-61
2021/08/04 10:33:52;;;;;;;7.55;3.20;;;;;;;28.15;43.19;94401.00;1722617;82;21143;-59
2021/08/04 10:36:20;;;;;;;3.62;3.30;;;;;;;28.52;42.31;94394.48;1718922;82;21221;-60
2021/08/04 10:38:52;;;;;;;4.12;2.90;;;;;;;28.83;40.12;94390.17;1716269;82;21030;-60
2021/08/04 10:41:26;;;;;;;9.98;3.65;;;;;;;29.04;39.06;94389.98;1723544;81;21831;-58
2021/08/04 10:43:55;;;;;;;4.83;3.20;;;;;;;29.20;38.31;94377.87;1707211;82;21061;-59
2021/08/04 10:46:34;;;;;;;4.47;3.10;;;;;;;29.36;38.27;94377.84;1717233;81;21100;-58
2021/08/04 10:49:10;;;;;;;16.10;4.62;;;;;;;29.57;37.92;94382.51;1695162;82;21018;-62
2021/08/04 10:51:41;;;;;;;5.00;3.10;;;;;;;29.76;35.75;94382.06;1681750;82;22453;-65
2021/08/04 10:54:14;;;;;;;15.85;3.35;;;;;;;29.94;34.27;94373.65;1713924;81;21159;-63
2021/08/04 10:56:48;;;;;;;8.93;3.10;;;;;;;30.07;33.65;94376.17;1707183;82;21017;-59
2021/08/04 10:59:26;;;;;;;7.58;3.08;;;;;;;30.21;34.10;94367.41;1698787;82;20998;-59
2021/08/04 11:01:56;;;;;;;8.28;2.40;;;;;;;30.47;34.08;94373.15;1681445;84;21129;-61
2021/08/04 11:04:32;;;;;;;5.78;3.08;;;;;;;30.86;32.07;94378.45;1655581;83;21053;-61
2021/08/04 11:07:13;;;;;;;3.10;2.50;;;;;;;31.06;31.32;94380.06;1648771;85;21570;-63
2021/08/04 11:09:46;;;;;;;4.67;2.30;;;;;;;31.17;30.82;94375.27;1623091;86;21176;-69
2021/08/04 11:12:19;;;;;;;11.80;2.98;;;;;;;31.32;31.76;94380.07;1611734;86;21624;-65
2021/08/04 11:14:55;;;;;;;6.55;2.22;;;;;;;31.62;32.28;94382.41;1663949;83;21226;-59
2021/08/04 11:17:32;;;;;;;14.23;2.70;;;;;;;31.95;31.64;94376.45;1648500;84;21061;-60
2021/08/04 11:20:10;;;;;;;7.87;2.58;;;;;;;32.26;31.18;94381.02;1627652;86;22227;-59
2021/08/04 11:22:46;;;;;;;6.50;2.77;;;;;;;32.65;28.84;94376.83;1638631;84;21075;-62
2021/08/04 11:25:40;;;;;;;6.95;2.75;;;;;;;32.85;28.60;94399.70;1640368;85;21054;-61
2021/08/04 11:28:15;;;;;;;11.95;2.98;;;;;;;32.95;27.28;94389.71;1641205;84;21044;-62
2021/08/04 11:30:54;;;;;;;5.87;2.55;;;;;;;32.64;26.78;94390.23;1648677;85;21095;-63
2021/08/04 11:33:27;;;;;;;5.67;2.50;;;;;;;32.14;28.55;94389.30;1637663;84;21911;-61
2021/08/04 11:36:13;;;;;;;16.87;2.90;;;;;;;31.60;29.85;94393.63;1717926;82;21016;-63
2021/08/04 11:39:08;;;;;;;6.03;2.95;;;;;;;31.06;29.72;94392.17;1699536;82;21113;-62
2021/08/04 11:41:41;;;;;;;9.68;2.77;;;;;;;30.56;30.98;94392.36;1631703;85;21169;-59